sensor_id;sensor_type;location;lat;lon;timestamp;P1;durP1;ratioP1;P2;durP2;ratioP2
28266;SDS011;15525;45.568;5.448;2023-08-06T00:00:22;5.15;;;2.40;;
28266;SDS011;15525;45.568;5.448;2023-08-06T00:02:48;4.28;;;2.15;;
28266;SDS011;15525;45.568;5.448;2023-08-06T00:05:15;3.58;;;2.33;;
28266;SDS011;15525;45.568;5.448;2023-08-06T00:07:46;3.33;;;2.00;;
28266;SDS011;15525;45.568;5.448;2023-08-06T00:10:14;4.25;;;2.13;;
28266;SDS011;15525;45.568;5.448;2023-08-06T00:12:40;6.03;;;2.33;;
28266;SDS011;15525;45.568;5.448;2023-08-06T00:15:06;4.68;;;2.40;;
28266;SDS011;15525;45.568;5.448;2023-08-06T00:17:33;3.22;;;1.90;;
28266;SDS011;15525;45.568;5.448;2023-08-06T00:19:59;3.17;;;2.17;;
28266;SDS011;15525;45.568;5.448;2023-08-06T00:22:29;3.75;;;1.80;;
28266;SDS011;15525;45.568;5.448;2023-08-06T00:24:55;5.15;;;2.30;;
28266;SDS011;15525;45.568;5.448;2023-08-06T00:27:22;6.05;;;2.53;;
28266;SDS011;15525;45.568;5.448;2023-08-06T00:29:48;2.15;;;1.70;;
28266;SDS011;15525;45.568;5.448;2023-08-06T00:32:13;4.72;;;2.30;;
28266;SDS011;15525;45.568;5.448;2023-08-06T00:34:38;4.65;;;2.58;;
28266;SDS011;15525;45.568;5.448;2023-08-06T00:37:04;2.85;;;2.00;;
28266;SDS011;15525;45.568;5.448;2023-08-06T00:39:29;4.13;;;2.00;;
28266;SDS011;15525;45.568;5.448;2023-08-06T00:41:55;3.58;;;2.30;;
28266;SDS011;15525;45.568;5.448;2023-08-06T00:44:20;2.50;;;2.05;;
28266;SDS011;15525;45.568;5.448;2023-08-06T00:46:46;4.93;;;2.20;;
28266;SDS011;15525;45.568;5.448;2023-08-06T00:49:12;6.70;;;2.38;;
28266;SDS011;15525;45.568;5.448;2023-08-06T00:51:37;4.57;;;2.35;;
28266;SDS011;15525;45.568;5.448;2023-08-06T00:54:03;3.95;;;2.00;;
28266;SDS011;15525;45.568;5.448;2023-08-06T00:56:28;7.13;;;2.40;;
28266;SDS011;15525;45.568;5.448;2023-08-06T00:58:54;3.30;;;2.33;;
28266;SDS011;15525;45.568;5.448;2023-08-06T01:01:20;8.63;;;2.50;;
28266;SDS011;15525;45.568;5.448;2023-08-06T01:03:46;3.67;;;2.35;;
28266;SDS011;15525;45.568;5.448;2023-08-06T01:06:11;5.63;;;2.22;;
28266;SDS011;15525;45.568;5.448;2023-08-06T01:16:46;3.20;;;2.20;;
28266;SDS011;15525;45.568;5.448;2023-08-06T01:19:16;4.32;;;2.17;;
28266;SDS011;15525;45.568;5.448;2023-08-06T01:21:42;3.47;;;2.03;;
28266;SDS011;15525;45.568;5.448;2023-08-06T01:24:08;4.53;;;1.98;;
28266;SDS011;15525;45.568;5.448;2023-08-06T01:26:36;4.88;;;2.38;;
28266;SDS011;15525;45.568;5.448;2023-08-06T01:29:28;3.95;;;2.15;;
28266;SDS011;15525;45.568;5.448;2023-08-06T01:32:08;4.43;;;2.17;;
28266;SDS011;15525;45.568;5.448;2023-08-06T01:34:36;6.35;;;2.10;;
28266;SDS011;15525;45.568;5.448;2023-08-06T01:37:05;3.88;;;2.17;;
28266;SDS011;15525;45.568;5.448;2023-08-06T01:39:33;3.65;;;2.15;;
28266;SDS011;15525;45.568;5.448;2023-08-06T01:41:59;3.42;;;2.47;;
28266;SDS011;15525;45.568;5.448;2023-08-06T01:44:24;4.53;;;2.13;;
28266;SDS011;15525;45.568;5.448;2023-08-06T01:46:50;4.22;;;2.22;;
28266;SDS011;15525;45.568;5.448;2023-08-06T01:49:15;3.28;;;1.95;;
28266;SDS011;15525;45.568;5.448;2023-08-06T01:51:41;4.57;;;1.98;;
28266;SDS011;15525;45.568;5.448;2023-08-06T01:54:06;3.47;;;2.00;;
28266;SDS011;15525;45.568;5.448;2023-08-06T01:56:31;3.78;;;1.90;;
28266;SDS011;15525;45.568;5.448;2023-08-06T01:58:57;3.42;;;2.05;;
28266;SDS011;15525;45.568;5.448;2023-08-06T02:01:22;3.78;;;2.22;;
28266;SDS011;15525;45.568;5.448;2023-08-06T02:03:48;3.78;;;2.20;;
28266;SDS011;15525;45.568;5.448;2023-08-06T02:06:13;3.72;;;2.20;;
28266;SDS011;15525;45.568;5.448;2023-08-06T02:08:39;4.32;;;1.92;;
28266;SDS011;15525;45.568;5.448;2023-08-06T02:11:04;3.15;;;2.05;;
28266;SDS011;15525;45.568;5.448;2023-08-06T02:13:30;3.42;;;2.45;;
28266;SDS011;15525;45.568;5.448;2023-08-06T02:15:55;3.33;;;2.40;;
28266;SDS011;15525;45.568;5.448;2023-08-06T02:18:21;2.85;;;2.05;;
28266;SDS011;15525;45.568;5.448;2023-08-06T02:20:56;4.05;;;2.15;;
28266;SDS011;15525;45.568;5.448;2023-08-06T02:23:22;2.47;;;1.90;;
28266;SDS011;15525;45.568;5.448;2023-08-06T02:25:48;6.20;;;2.10;;
28266;SDS011;15525;45.568;5.448;2023-08-06T02:28:13;5.80;;;2.40;;
28266;SDS011;15525;45.568;5.448;2023-08-06T02:30:38;5.32;;;2.03;;
28266;SDS011;15525;45.568;5.448;2023-08-06T02:33:04;3.40;;;1.85;;
28266;SDS011;15525;45.568;5.448;2023-08-06T02:35:29;2.30;;;1.63;;
28266;SDS011;15525;45.568;5.448;2023-08-06T02:37:54;4.50;;;2.00;;
28266;SDS011;15525;45.568;5.448;2023-08-06T02:40:20;2.50;;;1.67;;
28266;SDS011;15525;45.568;5.448;2023-08-06T02:42:45;2.30;;;1.65;;
28266;SDS011;15525;45.568;5.448;2023-08-06T02:45:11;4.15;;;1.67;;
28266;SDS011;15525;45.568;5.448;2023-08-06T02:47:36;4.80;;;1.80;;
28266;SDS011;15525;45.568;5.448;2023-08-06T02:50:02;3.22;;;1.98;;
28266;SDS011;15525;45.568;5.448;2023-08-06T02:52:27;3.65;;;2.10;;
28266;SDS011;15525;45.568;5.448;2023-08-06T02:54:53;2.90;;;2.13;;
28266;SDS011;15525;45.568;5.448;2023-08-06T02:57:18;2.90;;;2.05;;
28266;SDS011;15525;45.568;5.448;2023-08-06T02:59:43;3.58;;;1.90;;
28266;SDS011;15525;45.568;5.448;2023-08-06T03:02:09;2.60;;;1.77;;
28266;SDS011;15525;45.568;5.448;2023-08-06T03:04:34;3.55;;;2.00;;
28266;SDS011;15525;45.568;5.448;2023-08-06T03:06:59;3.22;;;2.30;;
28266;SDS011;15525;45.568;5.448;2023-08-06T03:09:25;4.65;;;2.08;;
28266;SDS011;15525;45.568;5.448;2023-08-06T03:11:50;5.00;;;1.98;;
28266;SDS011;15525;45.568;5.448;2023-08-06T03:14:16;3.50;;;2.08;;
28266;SDS011;15525;45.568;5.448;2023-08-06T03:16:41;2.65;;;2.00;;
28266;SDS011;15525;45.568;5.448;2023-08-06T03:19:07;2.92;;;1.98;;
28266;SDS011;15525;45.568;5.448;2023-08-06T03:21:32;3.58;;;1.90;;
28266;SDS011;15525;45.568;5.448;2023-08-06T03:23:57;5.80;;;2.13;;
28266;SDS011;15525;45.568;5.448;2023-08-06T03:26:23;3.47;;;2.00;;
28266;SDS011;15525;45.568;5.448;2023-08-06T03:28:48;4.63;;;1.90;;
28266;SDS011;15525;45.568;5.448;2023-08-06T03:31:14;5.78;;;2.10;;
28266;SDS011;15525;45.568;5.448;2023-08-06T03:33:39;8.43;;;2.03;;
28266;SDS011;15525;45.568;5.448;2023-08-06T03:36:04;6.38;;;2.00;;
28266;SDS011;15525;45.568;5.448;2023-08-06T03:38:31;4.55;;;1.80;;
28266;SDS011;15525;45.568;5.448;2023-08-06T03:40:56;4.95;;;1.80;;
28266;SDS011;15525;45.568;5.448;2023-08-06T03:43:22;4.65;;;1.75;;
28266;SDS011;15525;45.568;5.448;2023-08-06T03:45:47;7.10;;;1.85;;
28266;SDS011;15525;45.568;5.448;2023-08-06T03:48:12;2.80;;;1.65;;
28266;SDS011;15525;45.568;5.448;2023-08-06T03:50:38;6.68;;;2.10;;
28266;SDS011;15525;45.568;5.448;2023-08-06T03:53:04;5.00;;;1.90;;
28266;SDS011;15525;45.568;5.448;2023-08-06T03:55:29;4.22;;;1.55;;
28266;SDS011;15525;45.568;5.448;2023-08-06T03:57:54;5.22;;;1.70;;
28266;SDS011;15525;45.568;5.448;2023-08-06T04:00:20;3.50;;;1.83;;
28266;SDS011;15525;45.568;5.448;2023-08-06T04:02:45;4.45;;;1.83;;
28266;SDS011;15525;45.568;5.448;2023-08-06T04:05:11;3.25;;;1.70;;
28266;SDS011;15525;45.568;5.448;2023-08-06T04:07:37;2.60;;;1.70;;
28266;SDS011;15525;45.568;5.448;2023-08-06T04:10:03;4.45;;;1.67;;
28266;SDS011;15525;45.568;5.448;2023-08-06T04:12:30;4.97;;;1.83;;
28266;SDS011;15525;45.568;5.448;2023-08-06T04:14:57;5.00;;;1.77;;
28266;SDS011;15525;45.568;5.448;2023-08-06T04:17:22;8.50;;;2.30;;
28266;SDS011;15525;45.568;5.448;2023-08-06T04:19:52;5.80;;;1.70;;
28266;SDS011;15525;45.568;5.448;2023-08-06T04:22:18;6.20;;;2.03;;
28266;SDS011;15525;45.568;5.448;2023-08-06T04:24:44;8.38;;;2.30;;
28266;SDS011;15525;45.568;5.448;2023-08-06T04:27:10;5.35;;;2.08;;
28266;SDS011;15525;45.568;5.448;2023-08-06T04:29:36;5.72;;;1.80;;
28266;SDS011;15525;45.568;5.448;2023-08-06T04:32:06;5.78;;;2.03;;
28266;SDS011;15525;45.568;5.448;2023-08-06T04:34:34;4.65;;;1.63;;
28266;SDS011;15525;45.568;5.448;2023-08-06T04:37:00;5.28;;;1.77;;
28266;SDS011;15525;45.568;5.448;2023-08-06T04:39:26;5.45;;;1.80;;
28266;SDS011;15525;45.568;5.448;2023-08-06T04:41:52;6.43;;;2.10;;
28266;SDS011;15525;45.568;5.448;2023-08-06T04:44:17;9.20;;;2.50;;
28266;SDS011;15525;45.568;5.448;2023-08-06T04:46:43;6.40;;;2.30;;
28266;SDS011;15525;45.568;5.448;2023-08-06T04:49:08;8.80;;;2.30;;
28266;SDS011;15525;45.568;5.448;2023-08-06T04:51:34;6.20;;;1.83;;
28266;SDS011;15525;45.568;5.448;2023-08-06T04:53:59;6.22;;;2.75;;
28266;SDS011;15525;45.568;5.448;2023-08-06T04:56:25;6.38;;;2.40;;
28266;SDS011;15525;45.568;5.448;2023-08-06T04:58:50;10.40;;;2.42;;
28266;SDS011;15525;45.568;5.448;2023-08-06T05:01:16;9.95;;;2.30;;
28266;SDS011;15525;45.568;5.448;2023-08-06T05:03:41;10.02;;;2.45;;
28266;SDS011;15525;45.568;5.448;2023-08-06T05:06:07;6.78;;;2.55;;
28266;SDS011;15525;45.568;5.448;2023-08-06T05:08:32;9.23;;;2.40;;
28266;SDS011;15525;45.568;5.448;2023-08-06T05:10:58;6.28;;;1.95;;
28266;SDS011;15525;45.568;5.448;2023-08-06T05:13:23;10.05;;;2.30;;
28266;SDS011;15525;45.568;5.448;2023-08-06T05:15:48;8.82;;;2.40;;
28266;SDS011;15525;45.568;5.448;2023-08-06T05:18:14;13.68;;;2.60;;
28266;SDS011;15525;45.568;5.448;2023-08-06T05:20:40;6.93;;;2.17;;
28266;SDS011;15525;45.568;5.448;2023-08-06T05:23:06;8.85;;;2.45;;
28266;SDS011;15525;45.568;5.448;2023-08-06T05:25:31;9.13;;;2.72;;
28266;SDS011;15525;45.568;5.448;2023-08-06T05:27:59;12.10;;;2.70;;
28266;SDS011;15525;45.568;5.448;2023-08-06T05:30:26;10.95;;;2.28;;
28266;SDS011;15525;45.568;5.448;2023-08-06T05:32:52;12.27;;;2.50;;
28266;SDS011;15525;45.568;5.448;2023-08-06T05:35:17;11.07;;;2.40;;
28266;SDS011;15525;45.568;5.448;2023-08-06T05:37:42;8.07;;;2.15;;
28266;SDS011;15525;45.568;5.448;2023-08-06T05:40:08;11.10;;;2.88;;
28266;SDS011;15525;45.568;5.448;2023-08-06T05:42:33;11.27;;;2.08;;
28266;SDS011;15525;45.568;5.448;2023-08-06T05:44:59;10.20;;;2.83;;
28266;SDS011;15525;45.568;5.448;2023-08-06T05:47:24;12.50;;;2.53;;
28266;SDS011;15525;45.568;5.448;2023-08-06T05:49:50;8.63;;;2.20;;
28266;SDS011;15525;45.568;5.448;2023-08-06T05:52:15;8.20;;;1.77;;
28266;SDS011;15525;45.568;5.448;2023-08-06T05:54:40;6.63;;;2.00;;
28266;SDS011;15525;45.568;5.448;2023-08-06T05:57:06;7.68;;;2.08;;
28266;SDS011;15525;45.568;5.448;2023-08-06T05:59:31;12.68;;;2.03;;
28266;SDS011;15525;45.568;5.448;2023-08-06T06:01:57;7.55;;;2.22;;
28266;SDS011;15525;45.568;5.448;2023-08-06T06:04:22;9.93;;;1.85;;
28266;SDS011;15525;45.568;5.448;2023-08-06T06:06:48;6.50;;;1.85;;
28266;SDS011;15525;45.568;5.448;2023-08-06T06:09:13;9.73;;;3.63;;
28266;SDS011;15525;45.568;5.448;2023-08-06T06:11:38;5.57;;;1.80;;
28266;SDS011;15525;45.568;5.448;2023-08-06T06:14:04;8.68;;;1.90;;
28266;SDS011;15525;45.568;5.448;2023-08-06T06:16:29;11.02;;;1.92;;
28266;SDS011;15525;45.568;5.448;2023-08-06T06:18:55;7.55;;;2.00;;
28266;SDS011;15525;45.568;5.448;2023-08-06T06:21:22;10.48;;;2.40;;
28266;SDS011;15525;45.568;5.448;2023-08-06T06:23:48;7.38;;;2.13;;
28266;SDS011;15525;45.568;5.448;2023-08-06T06:26:13;5.85;;;1.83;;
28266;SDS011;15525;45.568;5.448;2023-08-06T06:28:39;8.73;;;2.35;;
28266;SDS011;15525;45.568;5.448;2023-08-06T06:31:04;9.82;;;2.30;;
28266;SDS011;15525;45.568;5.448;2023-08-06T06:33:30;9.65;;;2.58;;
28266;SDS011;15525;45.568;5.448;2023-08-06T06:35:55;9.52;;;1.90;;
28266;SDS011;15525;45.568;5.448;2023-08-06T06:38:20;9.43;;;2.28;;
28266;SDS011;15525;45.568;5.448;2023-08-06T06:40:58;6.88;;;1.83;;
28266;SDS011;15525;45.568;5.448;2023-08-06T06:43:24;7.50;;;1.90;;
28266;SDS011;15525;45.568;5.448;2023-08-06T06:45:53;10.18;;;1.95;;
28266;SDS011;15525;45.568;5.448;2023-08-06T06:48:21;6.35;;;1.50;;
28266;SDS011;15525;45.568;5.448;2023-08-06T06:50:47;6.68;;;1.38;;
28266;SDS011;15525;45.568;5.448;2023-08-06T06:53:13;5.57;;;1.85;;
28266;SDS011;15525;45.568;5.448;2023-08-06T06:55:38;6.00;;;1.92;;
28266;SDS011;15525;45.568;5.448;2023-08-06T06:58:04;9.10;;;2.15;;
28266;SDS011;15525;45.568;5.448;2023-08-06T07:00:29;10.10;;;2.15;;
28266;SDS011;15525;45.568;5.448;2023-08-06T07:02:55;9.75;;;2.30;;
28266;SDS011;15525;45.568;5.448;2023-08-06T07:05:20;8.52;;;2.20;;
28266;SDS011;15525;45.568;5.448;2023-08-06T07:07:45;11.13;;;2.58;;
28266;SDS011;15525;45.568;5.448;2023-08-06T07:10:11;8.95;;;1.80;;
28266;SDS011;15525;45.568;5.448;2023-08-06T07:12:36;7.25;;;1.80;;
28266;SDS011;15525;45.568;5.448;2023-08-06T07:15:03;7.80;;;1.90;;
28266;SDS011;15525;45.568;5.448;2023-08-06T07:17:31;6.32;;;1.45;;
28266;SDS011;15525;45.568;5.448;2023-08-06T07:19:56;7.90;;;1.55;;
28266;SDS011;15525;45.568;5.448;2023-08-06T07:22:21;4.45;;;1.58;;
28266;SDS011;15525;45.568;5.448;2023-08-06T07:24:47;6.82;;;1.60;;
28266;SDS011;15525;45.568;5.448;2023-08-06T07:27:12;3.90;;;1.20;;
28266;SDS011;15525;45.568;5.448;2023-08-06T07:29:37;4.40;;;1.15;;
28266;SDS011;15525;45.568;5.448;2023-08-06T07:32:03;5.18;;;1.50;;
28266;SDS011;15525;45.568;5.448;2023-08-06T07:34:29;3.42;;;1.10;;
28266;SDS011;15525;45.568;5.448;2023-08-06T07:36:54;2.83;;;1.10;;
28266;SDS011;15525;45.568;5.448;2023-08-06T07:39:19;5.95;;;1.48;;
28266;SDS011;15525;45.568;5.448;2023-08-06T07:41:45;4.72;;;1.20;;
28266;SDS011;15525;45.568;5.448;2023-08-06T07:44:11;1.80;;;0.90;;
28266;SDS011;15525;45.568;5.448;2023-08-06T07:46:36;1.92;;;1.00;;
28266;SDS011;15525;45.568;5.448;2023-08-06T07:49:03;3.38;;;0.98;;
28266;SDS011;15525;45.568;5.448;2023-08-06T07:51:28;2.58;;;0.90;;
28266;SDS011;15525;45.568;5.448;2023-08-06T07:53:54;3.20;;;0.90;;
28266;SDS011;15525;45.568;5.448;2023-08-06T07:56:19;2.58;;;0.93;;
28266;SDS011;15525;45.568;5.448;2023-08-06T07:58:44;2.38;;;1.15;;
28266;SDS011;15525;45.568;5.448;2023-08-06T08:01:10;4.00;;;1.10;;
28266;SDS011;15525;45.568;5.448;2023-08-06T08:03:35;4.25;;;1.00;;
28266;SDS011;15525;45.568;5.448;2023-08-06T08:06:01;2.22;;;1.05;;
28266;SDS011;15525;45.568;5.448;2023-08-06T08:08:26;2.78;;;1.23;;
28266;SDS011;15525;45.568;5.448;2023-08-06T08:10:51;4.70;;;1.05;;
28266;SDS011;15525;45.568;5.448;2023-08-06T08:13:17;3.45;;;1.10;;
28266;SDS011;15525;45.568;5.448;2023-08-06T08:15:42;4.68;;;1.00;;
28266;SDS011;15525;45.568;5.448;2023-08-06T08:18:08;2.95;;;1.20;;
28266;SDS011;15525;45.568;5.448;2023-08-06T08:20:34;4.68;;;1.00;;
28266;SDS011;15525;45.568;5.448;2023-08-06T08:23:00;1.85;;;0.90;;
28266;SDS011;15525;45.568;5.448;2023-08-06T08:25:26;2.25;;;0.90;;
28266;SDS011;15525;45.568;5.448;2023-08-06T08:27:53;2.50;;;1.00;;
28266;SDS011;15525;45.568;5.448;2023-08-06T08:30:19;2.90;;;1.10;;
28266;SDS011;15525;45.568;5.448;2023-08-06T08:32:45;2.05;;;0.98;;
28266;SDS011;15525;45.568;5.448;2023-08-06T08:35:10;2.97;;;1.00;;
28266;SDS011;15525;45.568;5.448;2023-08-06T08:37:37;3.15;;;1.10;;
28266;SDS011;15525;45.568;5.448;2023-08-06T08:40:04;2.05;;;1.00;;
28266;SDS011;15525;45.568;5.448;2023-08-06T08:42:31;2.15;;;0.98;;
28266;SDS011;15525;45.568;5.448;2023-08-06T08:44:56;3.53;;;0.90;;
28266;SDS011;15525;45.568;5.448;2023-08-06T08:47:22;3.90;;;0.90;;
28266;SDS011;15525;45.568;5.448;2023-08-06T08:49:52;2.08;;;1.20;;
28266;SDS011;15525;45.568;5.448;2023-08-06T08:52:20;2.63;;;1.13;;
28266;SDS011;15525;45.568;5.448;2023-08-06T08:54:47;3.05;;;1.10;;
28266;SDS011;15525;45.568;5.448;2023-08-06T08:57:16;3.33;;;0.98;;
28266;SDS011;15525;45.568;5.448;2023-08-06T08:59:42;3.67;;;1.40;;
28266;SDS011;15525;45.568;5.448;2023-08-06T09:02:08;1.83;;;0.90;;
28266;SDS011;15525;45.568;5.448;2023-08-06T09:04:36;1.83;;;0.70;;
28266;SDS011;15525;45.568;5.448;2023-08-06T09:07:02;2.97;;;0.68;;
28266;SDS011;15525;45.568;5.448;2023-08-06T09:09:33;1.45;;;0.85;;
28266;SDS011;15525;45.568;5.448;2023-08-06T09:12:02;1.25;;;0.70;;
28266;SDS011;15525;45.568;5.448;2023-08-06T09:14:36;1.50;;;0.88;;
28266;SDS011;15525;45.568;5.448;2023-08-06T09:17:01;1.58;;;0.80;;
28266;SDS011;15525;45.568;5.448;2023-08-06T09:19:27;1.98;;;1.00;;
28266;SDS011;15525;45.568;5.448;2023-08-06T09:21:53;1.90;;;0.70;;
28266;SDS011;15525;45.568;5.448;2023-08-06T09:24:20;1.25;;;0.93;;
28266;SDS011;15525;45.568;5.448;2023-08-06T09:26:47;3.20;;;0.85;;
28266;SDS011;15525;45.568;5.448;2023-08-06T09:29:12;2.88;;;1.13;;
28266;SDS011;15525;45.568;5.448;2023-08-06T09:31:41;1.98;;;1.00;;
28266;SDS011;15525;45.568;5.448;2023-08-06T09:34:17;2.15;;;1.00;;
28266;SDS011;15525;45.568;5.448;2023-08-06T09:36:48;1.75;;;1.02;;
28266;SDS011;15525;45.568;5.448;2023-08-06T09:39:16;2.38;;;1.00;;
28266;SDS011;15525;45.568;5.448;2023-08-06T09:41:44;2.03;;;1.08;;
28266;SDS011;15525;45.568;5.448;2023-08-06T09:44:18;3.08;;;1.20;;
28266;SDS011;15525;45.568;5.448;2023-08-06T09:46:48;4.30;;;1.23;;
28266;SDS011;15525;45.568;5.448;2023-08-06T09:49:14;7.03;;;3.40;;
28266;SDS011;15525;45.568;5.448;2023-08-06T09:51:41;1.23;;;1.10;;
28266;SDS011;15525;45.568;5.448;2023-08-06T09:54:06;3.42;;;1.10;;
28266;SDS011;15525;45.568;5.448;2023-08-06T09:56:35;2.10;;;0.80;;
28266;SDS011;15525;45.568;5.448;2023-08-06T09:59:04;3.42;;;1.13;;
28266;SDS011;15525;45.568;5.448;2023-08-06T10:01:32;1.08;;;0.80;;
28266;SDS011;15525;45.568;5.448;2023-08-06T10:03:59;2.70;;;1.10;;
28266;SDS011;15525;45.568;5.448;2023-08-06T10:06:26;1.90;;;0.80;;
28266;SDS011;15525;45.568;5.448;2023-08-06T10:08:53;2.20;;;1.30;;
28266;SDS011;15525;45.568;5.448;2023-08-06T10:11:20;1.63;;;1.05;;
28266;SDS011;15525;45.568;5.448;2023-08-06T10:13:48;1.73;;;0.95;;
28266;SDS011;15525;45.568;5.448;2023-08-06T10:16:17;1.42;;;0.88;;
28266;SDS011;15525;45.568;5.448;2023-08-06T10:18:43;1.80;;;1.00;;
28266;SDS011;15525;45.568;5.448;2023-08-06T10:21:09;2.83;;;1.02;;
28266;SDS011;15525;45.568;5.448;2023-08-06T10:23:35;2.53;;;1.05;;
28266;SDS011;15525;45.568;5.448;2023-08-06T10:26:03;3.88;;;1.33;;
28266;SDS011;15525;45.568;5.448;2023-08-06T10:28:36;3.38;;;1.35;;
28266;SDS011;15525;45.568;5.448;2023-08-06T10:31:02;3.53;;;1.10;;
28266;SDS011;15525;45.568;5.448;2023-08-06T10:33:44;3.38;;;1.13;;
28266;SDS011;15525;45.568;5.448;2023-08-06T10:36:10;1.77;;;1.48;;
28266;SDS011;15525;45.568;5.448;2023-08-06T10:38:46;3.97;;;1.35;;
28266;SDS011;15525;45.568;5.448;2023-08-06T10:41:21;2.30;;;0.90;;
28266;SDS011;15525;45.568;5.448;2023-08-06T10:44:07;2.55;;;1.10;;
28266;SDS011;15525;45.568;5.448;2023-08-06T10:46:33;3.40;;;1.30;;
28266;SDS011;15525;45.568;5.448;2023-08-06T10:48:58;4.65;;;1.48;;
28266;SDS011;15525;45.568;5.448;2023-08-06T10:51:24;1.42;;;0.85;;
28266;SDS011;15525;45.568;5.448;2023-08-06T10:53:50;2.40;;;1.08;;
28266;SDS011;15525;45.568;5.448;2023-08-06T10:56:17;2.08;;;1.00;;
28266;SDS011;15525;45.568;5.448;2023-08-06T10:58:46;1.50;;;1.00;;
28266;SDS011;15525;45.568;5.448;2023-08-06T11:01:12;1.90;;;1.10;;
28266;SDS011;15525;45.568;5.448;2023-08-06T11:03:38;1.77;;;1.00;;
28266;SDS011;15525;45.568;5.448;2023-08-06T11:06:06;6.53;;;1.20;;
28266;SDS011;15525;45.568;5.448;2023-08-06T11:08:35;2.97;;;1.35;;
28266;SDS011;15525;45.568;5.448;2023-08-06T11:11:12;2.63;;;1.20;;
28266;SDS011;15525;45.568;5.448;2023-08-06T11:13:39;4.60;;;1.50;;
28266;SDS011;15525;45.568;5.448;2023-08-06T11:16:08;4.35;;;1.23;;
28266;SDS011;15525;45.568;5.448;2023-08-06T11:18:34;2.35;;;1.10;;
28266;SDS011;15525;45.568;5.448;2023-08-06T11:21:00;1.45;;;1.10;;
28266;SDS011;15525;45.568;5.448;2023-08-06T11:23:27;5.60;;;1.42;;
28266;SDS011;15525;45.568;5.448;2023-08-06T11:25:53;2.88;;;1.23;;
28266;SDS011;15525;45.568;5.448;2023-08-06T11:28:20;3.95;;;1.60;;
28266;SDS011;15525;45.568;5.448;2023-08-06T11:30:47;4.82;;;1.58;;
28266;SDS011;15525;45.568;5.448;2023-08-06T11:33:12;3.38;;;1.40;;
28266;SDS011;15525;45.568;5.448;2023-08-06T11:35:38;2.90;;;1.40;;
28266;SDS011;15525;45.568;5.448;2023-08-06T11:38:04;4.82;;;1.30;;
28266;SDS011;15525;45.568;5.448;2023-08-06T11:40:31;4.22;;;1.50;;
28266;SDS011;15525;45.568;5.448;2023-08-06T11:42:57;2.85;;;1.40;;
28266;SDS011;15525;45.568;5.448;2023-08-06T11:45:26;3.42;;;1.55;;
28266;SDS011;15525;45.568;5.448;2023-08-06T11:47:52;4.10;;;1.50;;
28266;SDS011;15525;45.568;5.448;2023-08-06T11:50:25;3.60;;;1.45;;
28266;SDS011;15525;45.568;5.448;2023-08-06T11:52:54;2.50;;;1.70;;
28266;SDS011;15525;45.568;5.448;2023-08-06T11:55:23;3.53;;;1.55;;
28266;SDS011;15525;45.568;5.448;2023-08-06T11:57:49;4.85;;;1.50;;
28266;SDS011;15525;45.568;5.448;2023-08-06T12:00:15;2.45;;;1.33;;
28266;SDS011;15525;45.568;5.448;2023-08-06T12:02:43;3.03;;;1.40;;
28266;SDS011;15525;45.568;5.448;2023-08-06T12:07:37;4.18;;;1.85;;
28266;SDS011;15525;45.568;5.448;2023-08-06T12:10:04;2.25;;;1.25;;
28266;SDS011;15525;45.568;5.448;2023-08-06T12:12:30;2.85;;;1.23;;
28266;SDS011;15525;45.568;5.448;2023-08-06T12:14:56;3.75;;;1.67;;
28266;SDS011;15525;45.568;5.448;2023-08-06T12:17:25;3.08;;;1.40;;
28266;SDS011;15525;45.568;5.448;2023-08-06T12:19:51;4.95;;;1.52;;
28266;SDS011;15525;45.568;5.448;2023-08-06T12:22:16;4.60;;;1.20;;
28266;SDS011;15525;45.568;5.448;2023-08-06T12:24:43;2.60;;;1.50;;
28266;SDS011;15525;45.568;5.448;2023-08-06T12:27:09;4.18;;;1.63;;
28266;SDS011;15525;45.568;5.448;2023-08-06T12:29:35;4.35;;;1.50;;
28266;SDS011;15525;45.568;5.448;2023-08-06T12:32:02;3.53;;;1.23;;
28266;SDS011;15525;45.568;5.448;2023-08-06T12:34:28;2.70;;;1.40;;
28266;SDS011;15525;45.568;5.448;2023-08-06T12:36:54;3.88;;;1.55;;
28266;SDS011;15525;45.568;5.448;2023-08-06T12:39:19;3.17;;;1.30;;
28266;SDS011;15525;45.568;5.448;2023-08-06T12:41:44;3.10;;;1.35;;
28266;SDS011;15525;45.568;5.448;2023-08-06T12:44:11;3.38;;;1.50;;
28266;SDS011;15525;45.568;5.448;2023-08-06T12:46:37;3.90;;;1.60;;
28266;SDS011;15525;45.568;5.448;2023-08-06T12:49:02;4.07;;;1.48;;
28266;SDS011;15525;45.568;5.448;2023-08-06T12:51:28;2.67;;;1.33;;
28266;SDS011;15525;45.568;5.448;2023-08-06T12:53:53;2.90;;;1.40;;
28266;SDS011;15525;45.568;5.448;2023-08-06T12:56:19;2.47;;;1.35;;
28266;SDS011;15525;45.568;5.448;2023-08-06T12:58:44;2.38;;;1.35;;
28266;SDS011;15525;45.568;5.448;2023-08-06T13:01:10;2.85;;;1.50;;
28266;SDS011;15525;45.568;5.448;2023-08-06T13:03:35;4.03;;;1.60;;
28266;SDS011;15525;45.568;5.448;2023-08-06T13:06:00;3.10;;;1.88;;
28266;SDS011;15525;45.568;5.448;2023-08-06T13:08:26;4.30;;;1.45;;
28266;SDS011;15525;45.568;5.448;2023-08-06T13:10:51;6.25;;;1.30;;
28266;SDS011;15525;45.568;5.448;2023-08-06T13:13:17;2.40;;;1.20;;
28266;SDS011;15525;45.568;5.448;2023-08-06T13:15:42;4.38;;;1.60;;
28266;SDS011;15525;45.568;5.448;2023-08-06T13:18:08;4.20;;;2.20;;
28266;SDS011;15525;45.568;5.448;2023-08-06T13:20:34;4.93;;;1.27;;
28266;SDS011;15525;45.568;5.448;2023-08-06T13:22:59;2.60;;;1.20;;
28266;SDS011;15525;45.568;5.448;2023-08-06T13:25:26;4.28;;;1.27;;
28266;SDS011;15525;45.568;5.448;2023-08-06T13:27:53;1.88;;;1.10;;
28266;SDS011;15525;45.568;5.448;2023-08-06T13:30:19;2.67;;;1.35;;
28266;SDS011;15525;45.568;5.448;2023-08-06T13:32:45;2.50;;;1.33;;
28266;SDS011;15525;45.568;5.448;2023-08-06T13:35:11;2.88;;;1.40;;
28266;SDS011;15525;45.568;5.448;2023-08-06T13:37:36;2.35;;;1.50;;
28266;SDS011;15525;45.568;5.448;2023-08-06T13:40:02;3.75;;;1.27;;
28266;SDS011;15525;45.568;5.448;2023-08-06T13:42:27;2.55;;;1.42;;
28266;SDS011;15525;45.568;5.448;2023-08-06T13:44:54;3.05;;;1.33;;
28266;SDS011;15525;45.568;5.448;2023-08-06T13:47:24;1.73;;;1.30;;
28266;SDS011;15525;45.568;5.448;2023-08-06T13:49:50;2.65;;;1.13;;
28266;SDS011;15525;45.568;5.448;2023-08-06T13:52:15;1.95;;;1.33;;
28266;SDS011;15525;45.568;5.448;2023-08-06T13:54:41;3.50;;;1.40;;
28266;SDS011;15525;45.568;5.448;2023-08-06T13:57:06;3.28;;;1.13;;
28266;SDS011;15525;45.568;5.448;2023-08-06T13:59:32;3.10;;;1.60;;
28266;SDS011;15525;45.568;5.448;2023-08-06T14:01:57;2.20;;;1.27;;
28266;SDS011;15525;45.568;5.448;2023-08-06T14:04:24;3.75;;;1.50;;
28266;SDS011;15525;45.568;5.448;2023-08-06T14:06:50;5.78;;;1.50;;
28266;SDS011;15525;45.568;5.448;2023-08-06T14:09:15;1.88;;;1.23;;
28266;SDS011;15525;45.568;5.448;2023-08-06T14:11:43;4.10;;;1.52;;
28266;SDS011;15525;45.568;5.448;2023-08-06T14:14:09;2.45;;;1.42;;
28266;SDS011;15525;45.568;5.448;2023-08-06T14:16:35;3.08;;;1.45;;
28266;SDS011;15525;45.568;5.448;2023-08-06T14:19:01;3.13;;;1.52;;
28266;SDS011;15525;45.568;5.448;2023-08-06T14:21:27;4.35;;;1.65;;
28266;SDS011;15525;45.568;5.448;2023-08-06T14:23:52;3.08;;;1.50;;
28266;SDS011;15525;45.568;5.448;2023-08-06T14:26:18;4.70;;;1.63;;
28266;SDS011;15525;45.568;5.448;2023-08-06T14:28:43;3.15;;;1.40;;
28266;SDS011;15525;45.568;5.448;2023-08-06T14:31:09;3.42;;;1.60;;
28266;SDS011;15525;45.568;5.448;2023-08-06T14:33:34;2.22;;;1.50;;
28266;SDS011;15525;45.568;5.448;2023-08-06T14:35:59;3.40;;;1.48;;
28266;SDS011;15525;45.568;5.448;2023-08-06T14:38:25;4.20;;;1.45;;
28266;SDS011;15525;45.568;5.448;2023-08-06T14:40:50;2.97;;;1.60;;
28266;SDS011;15525;45.568;5.448;2023-08-06T14:43:16;5.13;;;1.70;;
28266;SDS011;15525;45.568;5.448;2023-08-06T14:45:42;2.30;;;1.45;;
28266;SDS011;15525;45.568;5.448;2023-08-06T14:48:07;2.97;;;1.40;;
28266;SDS011;15525;45.568;5.448;2023-08-06T14:50:33;5.03;;;1.83;;
28266;SDS011;15525;45.568;5.448;2023-08-06T14:52:58;3.35;;;1.98;;